Terminal Aerodrome Forecast
Issued by NWS Tampa Bay Area, FL

Home | Current Version | Previous Version | Text Only | Print | Product List | Glossary On
Versions: 1 2 3 4 5 6 7 8 9 10 11 12 13 14 15 16 17 18
000
FTUS42 KTBW 072333
TAFSRQ
TAF
KSRQ 072333Z 0800/0824 12005KT P6SM FEW060 OVC200
     FM080200 VRB03KT P6SM SCT150 BKN250
     FM080500 VRB03KT P6SM SCT250
     FM081400 14007KT P6SM FEW020 SCT250
     FM081700 19007KT P6SM VCTS SCT035CB SCT250
     FM082000 23008KT P6SM VCTS SCT040CB SCT100 BKN250=

USA.gov is the U.S. government's official web portal to all federal, state and local government web resources and services.